Skip Navigation LinksHome page > Weather > Current weather Skip Navigation Links

Current Weather

New Tokyo International (Narita), Tokyo

For information only: do not use for flight planning or navigation.
Latest weather
Observation time Monday, December 18, 2017 9:00 PM JST
Local time Monday, December 18, 2017 9:30 PM JST
Flight conditions Visual Meteorological Conditions
Winds
Wind direction variable
Wind speed 2 mph
Visibility 6.2 mi.
Sky condition
Ceiling unlimited
Cloud layer scattered clouds 0 ft.
Cloud layer few clouds 3,000 ft.
Temperature 34°F
Dewpoint 30°F
Altimeter 30.15 in.Hg
Derived measurements
Relative humidity 86%
Wind chill 34°F
Density altitude -1740 ft.
Remarks
No significant changes expected in the next two hours.
METAR RJAA 181200Z VRB02KT 9999 FEW030 SCT/// 01/M01 Q1021 NOSIG RMK 1CU030 A3016

Settings

Location code

InnerDrive.Weather 4.0.6144.1 Release CLR 4.0.30319.36366
Copyright ©2015 Inner Drive Technology. All rights reserved. Portions Copyright ©1986-2015 David Braverman.

Find weather

Site navigation


Skip Navigation Links

Place info

Page info

PayPal - The safer, easier way to pay online!

Return home.

Copyright ©2017 Inner Drive Technology. Purveyors of fine, hand-crafted computer software. Page printed 2017-12-18T12:30:55 UTC.